Private Wetterstation Sandau
Wetterdaten: Montag, 02.07.2012
Datum Zeit Temp. A. Feuchte A. Luftdruck Regen Wind Richtung Richtung Taupunkt Windchill
02.07.2012 00:01 17,3 C 76 % 1019,9 hPa 0,0 l/m 3,6 km/h (1 Bft) W 270 13,0 C 17,3 C
02.07.2012 00:06 17,3 C 76 % 1020,0 hPa 0,0 l/m 3,6 km/h (1 Bft) W 270 13,0 C 17,3 C
02.07.2012 00:11 17,2 C 76 % 1020,2 hPa 0,0 l/m 3,6 km/h (1 Bft) W 270 12,9 C 17,2 C
02.07.2012 00:16 17,1 C 77 % 1020,3 hPa 0,0 l/m 6,1 km/h (2 Bft) NW 315 13,0 C 17,1 C
02.07.2012 00:21 16,9 C 77 % 1020,3 hPa 0,0 l/m 7,6 km/h (2 Bft) NW 315 12,8 C 16,9 C
02.07.2012 00:26 16,9 C 77 % 1020,4 hPa 0,0 l/m 5,8 km/h (2 Bft) W 270 12,8 C 16,9 C
02.07.2012 00:31 16,8 C 78 % 1020,4 hPa 0,0 l/m 6,1 km/h (2 Bft) NW 315 12,9 C 16,8 C
02.07.2012 00:36 16,8 C 77 % 1020,5 hPa 0,0 l/m 4,0 km/h (1 Bft) W-NW 292 12,7 C 16,8 C
02.07.2012 00:41 16,8 C 78 % 1020,5 hPa 0,0 l/m 2,9 km/h (1 Bft) W-NW 292 12,9 C 16,8 C
02.07.2012 00:46 16,7 C 78 % 1020,4 hPa 0,0 l/m 5,0 km/h (1 Bft) W-NW 292 12,8 C 16,7 C
02.07.2012 00:51 16,8 C 77 % 1020,6 hPa 0,0 l/m 1,4 km/h (1 Bft) W 270 12,7 C 16,8 C
02.07.2012 00:56 16,8 C 77 % 1020,6 hPa 0,0 l/m 4,3 km/h (1 Bft) W-NW 292 12,7 C 16,8 C
02.07.2012 01:01 16,8 C 77 % 1020,7 hPa 0,0 l/m 2,2 km/h (1 Bft) W 270 12,7 C 16,8 C
02.07.2012 01:06 16,8 C 77 % 1020,8 hPa 0,0 l/m 3,6 km/h (1 Bft) W-NW 292 12,7 C 16,8 C
02.07.2012 01:11 16,9 C 77 % 1020,8 hPa 0,0 l/m 3,6 km/h (1 Bft) W-NW 292 12,8 C 16,9 C
02.07.2012 01:16 16,8 C 77 % 1020,8 hPa 0,0 l/m 4,3 km/h (1 Bft) W 270 12,7 C 16,8 C
02.07.2012 01:21 16,8 C 77 % 1020,9 hPa 0,0 l/m 2,9 km/h (1 Bft) W-NW 292 12,7 C 16,8 C
02.07.2012 01:26 16,6 C 76 % 1020,8 hPa 0,0 l/m 4,0 km/h (1 Bft) W-NW 292 12,3 C 16,6 C
02.07.2012 01:31 16,5 C 76 % 1020,8 hPa 0,0 l/m 6,8 km/h (2 Bft) NW 315 12,3 C 16,5 C
02.07.2012 01:36 16,3 C 75 % 1020,9 hPa 0,0 l/m 6,1 km/h (2 Bft) W-NW 292 11,9 C 16,3 C
02.07.2012 01:41 16,1 C 75 % 1021,0 hPa 0,0 l/m 6,5 km/h (2 Bft) W-NW 292 11,7 C 16,1 C
02.07.2012 01:46 15,9 C 75 % 1021,0 hPa 0,0 l/m 3,2 km/h (1 Bft) W 270 11,5 C 15,9 C
02.07.2012 01:51 15,9 C 75 % 1020,9 hPa 0,0 l/m 3,2 km/h (1 Bft) W-NW 292 11,5 C 15,9 C
02.07.2012 01:56 15,8 C 75 % 1021,0 hPa 0,0 l/m 3,6 km/h (1 Bft) NW 315 11,4 C 15,8 C
02.07.2012 02:01 15,8 C 75 % 1021,1 hPa 0,0 l/m 4,0 km/h (1 Bft) NW 315 11,4 C 15,8 C
02.07.2012 02:06 15,6 C 75 % 1021,1 hPa 0,0 l/m 2,5 km/h (1 Bft) W 270 11,2 C 15,6 C
02.07.2012 02:11 15,6 C 75 % 1021,1 hPa 0,0 l/m 6,1 km/h (2 Bft) W 270 11,2 C 15,6 C
02.07.2012 02:16 15,5 C 75 % 1021,1 hPa 0,0 l/m 1,4 km/h (1 Bft) W 270 11,1 C 15,5 C
02.07.2012 02:21 15,4 C 75 % 1021,1 hPa 0,0 l/m 7,6 km/h (2 Bft) W-NW 292 11,0 C 15,4 C
02.07.2012 02:26 15,4 C 75 % 1021,1 hPa 0,0 l/m 4,7 km/h (1 Bft) W-NW 292 11,0 C 15,4 C
02.07.2012 02:31 15,4 C 75 % 1021,0 hPa 0,0 l/m 4,3 km/h (1 Bft) W 270 11,0 C 15,4 C
02.07.2012 02:36 15,3 C 75 % 1021,0 hPa 0,0 l/m 2,2 km/h (1 Bft) W 270 10,9 C 15,3 C
02.07.2012 02:41 15,4 C 76 % 1021,2 hPa 0,0 l/m 3,6 km/h (1 Bft) W-SW 247 11,2 C 15,4 C
02.07.2012 02:46 15,3 C 75 % 1021,2 hPa 0,0 l/m 0,0 km/h (0 Bft) W 270 10,9 C 15,3 C
02.07.2012 02:51 15,3 C 75 % 1021,2 hPa 0,0 l/m 3,6 km/h (1 Bft) W 270 10,9 C 15,3 C
02.07.2012 02:56 15,3 C 75 % 1021,5 hPa 0,0 l/m 4,0 km/h (1 Bft) SW 225 10,9 C 15,3 C
02.07.2012 03:01 15,3 C 75 % 1021,4 hPa 0,0 l/m 4,3 km/h (1 Bft) W 270 10,9 C 15,3 C
02.07.2012 03:06 15,2 C 75 % 1021,5 hPa 0,0 l/m 3,6 km/h (1 Bft) W-SW 247 10,8 C 15,2 C
02.07.2012 03:11 15,2 C 75 % 1021,4 hPa 0,0 l/m 1,8 km/h (1 Bft) W 270 10,8 C 15,2 C
02.07.2012 03:16 15,1 C 75 % 1021,5 hPa 0,0 l/m 3,2 km/h (1 Bft) W-NW 292 10,7 C 15,1 C
02.07.2012 03:21 15,0 C 75 % 1021,5 hPa 0,0 l/m 0,0 km/h (0 Bft) W-NW 292 10,6 C 15,0 C
02.07.2012 03:26 14,9 C 75 % 1021,5 hPa 0,0 l/m 0,0 km/h (0 Bft) W-NW 292 10,5 C 14,9 C
02.07.2012 03:31 14,9 C 75 % 1021,4 hPa 0,0 l/m 0,0 km/h (0 Bft) W 270 10,5 C 14,9 C
02.07.2012 03:36 14,9 C 76 % 1021,4 hPa 0,0 l/m 2,5 km/h (1 Bft) W 270 10,7 C 14,9 C
02.07.2012 03:41 14,9 C 76 % 1021,3 hPa 0,0 l/m 0,0 km/h (0 Bft) W 270 10,7 C 14,9 C
02.07.2012 03:46 14,8 C 76 % 1021,4 hPa 0,0 l/m 0,0 km/h (0 Bft) W-SW 247 10,6 C 14,8 C
02.07.2012 03:51 14,7 C 76 % 1021,6 hPa 0,0 l/m 0,0 km/h (0 Bft) W 270 10,5 C 14,7 C
02.07.2012 03:56 14,6 C 76 % 1021,6 hPa 0,0 l/m 0,0 km/h (0 Bft) W-SW 247 10,4 C 14,6 C
02.07.2012 04:01 14,5 C 76 % 1021,7 hPa 0,0 l/m 0,0 km/h (0 Bft) SW 225 10,3 C 14,5 C
02.07.2012 04:06 14,4 C 76 % 1021,7 hPa 0,0 l/m 0,0 km/h (0 Bft) W 270 10,2 C 14,4 C
02.07.2012 04:11 14,2 C 76 % 1021,9 hPa 0,0 l/m 0,0 km/h (0 Bft) W 270 10,0 C 14,2 C
02.07.2012 04:16 14,0 C 76 % 1021,7 hPa 0,0 l/m 0,0 km/h (0 Bft) N-NW 337 9,8 C 14,0 C
02.07.2012 04:21 13,9 C 77 % 1021,8 hPa 0,0 l/m 0,0 km/h (0 Bft) N-NO 22 9,9 C 13,9 C
02.07.2012 04:26 13,8 C 77 % 1021,8 hPa 0,0 l/m 0,0 km/h (0 Bft) W-NW 292 9,8 C 13,8 C
02.07.2012 04:31 13,9 C 77 % 1022,0 hPa 0,0 l/m 0,0 km/h (0 Bft) W-NW 292 9,9 C 13,9 C
02.07.2012 04:36 13,8 C 77 % 1022,1 hPa 0,0 l/m 0,0 km/h (0 Bft) W-NW 292 9,8 C 13,8 C
02.07.2012 04:41 13,8 C 78 % 1022,1 hPa 0,0 l/m 0,0 km/h (0 Bft) W-NW 292 10,0 C 13,8 C
02.07.2012 04:46 13,8 C 78 % 1021,9 hPa 0,0 l/m 0,0 km/h (0 Bft) W-NW 292 10,0 C 13,8 C
02.07.2012 04:51 13,8 C 78 % 1021,9 hPa 0,0 l/m 0,0 km/h (0 Bft) W-NW 292 10,0 C 13,8 C
02.07.2012 04:56 13,8 C 78 % 1022,0 hPa 0,0 l/m 1,1 km/h (1 Bft) W-NW 292 10,0 C 13,8 C
02.07.2012 05:01 13,8 C 78 % 1022,1 hPa 0,0 l/m 2,2 km/h (1 Bft) W-SW 247 10,0 C 13,8 C
02.07.2012 05:06 13,8 C 78 % 1022,2 hPa 0,0 l/m 2,2 km/h (1 Bft) S-SW 202 10,0 C 13,8 C
02.07.2012 05:11 13,7 C 78 % 1022,2 hPa 0,0 l/m 0,0 km/h (0 Bft) S-SW 202 9,9 C 13,7 C
02.07.2012 05:16 13,6 C 78 % 1022,3 hPa 0,0 l/m 0,0 km/h (0 Bft) SW 225 9,8 C 13,6 C
02.07.2012 05:21 13,6 C 78 % 1022,3 hPa 0,0 l/m 0,0 km/h (0 Bft) SW 225 9,8 C 13,6 C
02.07.2012 05:26 13,6 C 78 % 1022,5 hPa 0,0 l/m 0,0 km/h (0 Bft) SW 225 9,8 C 13,6 C
02.07.2012 05:31 13,5 C 78 % 1022,5 hPa 0,0 l/m 0,0 km/h (0 Bft) S 180 9,7 C 13,5 C
02.07.2012 05:36 13,5 C 79 % 1022,5 hPa 0,0 l/m 0,0 km/h (0 Bft) S 180 9,9 C 13,5 C
02.07.2012 05:41 13,5 C 79 % 1022,5 hPa 0,0 l/m 0,0 km/h (0 Bft) SO 135 9,9 C 13,5 C
02.07.2012 05:46 13,5 C 79 % 1022,6 hPa 0,0 l/m 2,2 km/h (1 Bft) S-SW 202 9,9 C 13,5 C
02.07.2012 05:51 13,8 C 80 % 1022,4 hPa 0,0 l/m 0,0 km/h (0 Bft) S-SW 202 10,4 C 13,8 C
02.07.2012 05:56 14,4 C 80 % 1022,3 hPa 0,0 l/m 0,0 km/h (0 Bft) SW 225 11,0 C 14,4 C
02.07.2012 06:01 14,9 C 79 % 1022,2 hPa 0,0 l/m 0,0 km/h (0 Bft) S 180 11,3 C 14,9 C
02.07.2012 06:06 15,6 C 77 % 1022,3 hPa 0,0 l/m 0,0 km/h (0 Bft) S-SO 157 11,6 C 15,6 C
02.07.2012 06:11 16,1 C 75 % 1022,4 hPa 0,0 l/m 0,0 km/h (0 Bft) S-SO 157 11,7 C 16,1 C
02.07.2012 06:16 16,5 C 73 % 1022,3 hPa 0,0 l/m 2,5 km/h (1 Bft) S-SO 157 11,6 C 16,5 C
02.07.2012 06:21 16,8 C 72 % 1022,5 hPa 0,0 l/m 3,6 km/h (1 Bft) S-SO 157 11,7 C 16,8 C
02.07.2012 06:26 17,0 C 71 % 1022,6 hPa 0,0 l/m 1,8 km/h (1 Bft) S-SO 157 11,7 C 17,0 C
02.07.2012 06:31 17,2 C 70 % 1022,5 hPa 0,0 l/m 3,2 km/h (1 Bft) S-SO 157 11,7 C 17,2 C
02.07.2012 06:36 17,3 C 69 % 1022,5 hPa 0,0 l/m 0,0 km/h (0 Bft) S-SO 157 11,6 C 17,3 C
02.07.2012 06:41 17,4 C 69 % 1022,5 hPa 0,0 l/m 1,1 km/h (1 Bft) S-SW 202 11,7 C 17,4 C
02.07.2012 06:46 17,4 C 69 % 1022,6 hPa 0,0 l/m 0,0 km/h (0 Bft) S-SW 202 11,7 C 17,4 C
02.07.2012 06:51 17,5 C 68 % 1022,6 hPa 0,0 l/m 0,0 km/h (0 Bft) S-SW 202 11,5 C 17,5 C
02.07.2012 06:56 17,6 C 68 % 1022,7 hPa 0,0 l/m 1,1 km/h (1 Bft) W-SW 247 11,6 C 17,6 C
02.07.2012 07:01 17,5 C 68 % 1022,5 hPa 0,0 l/m 1,1 km/h (1 Bft) S-SO 157 11,5 C 17,5 C
02.07.2012 07:06 17,6 C 68 % 1022,6 hPa 0,0 l/m 2,9 km/h (1 Bft) S-SW 202 11,6 C 17,6 C
02.07.2012 07:11 17,6 C 68 % 1022,6 hPa 0,0 l/m 2,5 km/h (1 Bft) W-SW 247 11,6 C 17,6 C
02.07.2012 07:16 17,8 C 68 % 1022,6 hPa 0,0 l/m 4,7 km/h (1 Bft) W-SW 247 11,8 C 17,8 C
02.07.2012 07:21 17,9 C 67 % 1022,6 hPa 0,0 l/m 0,0 km/h (0 Bft) W 270 11,7 C 17,9 C
02.07.2012 07:26 18,1 C 67 % 1022,6 hPa 0,0 l/m 1,8 km/h (1 Bft) W-SW 247 11,9 C 18,1 C
02.07.2012 07:31 18,2 C 67 % 1022,7 hPa 0,0 l/m 4,7 km/h (1 Bft) W-SW 247 12,0 C 18,2 C
02.07.2012 07:36 18,4 C 66 % 1022,5 hPa 0,0 l/m 1,1 km/h (1 Bft) W 270 11,9 C 18,4 C
02.07.2012 07:41 18,4 C 66 % 1022,6 hPa 0,0 l/m 2,5 km/h (1 Bft) W-NW 292 11,9 C 18,4 C
02.07.2012 07:46 18,5 C 65 % 1022,5 hPa 0,0 l/m 2,5 km/h (1 Bft) W 270 11,8 C 18,5 C
02.07.2012 07:51 18,5 C 65 % 1022,5 hPa 0,0 l/m 7,6 km/h (2 Bft) NW 315 11,8 C 18,5 C
02.07.2012 07:56 18,6 C 64 % 1022,4 hPa 0,0 l/m 1,4 km/h (1 Bft) W-NW 292 11,7 C 18,6 C
02.07.2012 08:01 18,7 C 64 % 1022,4 hPa 0,0 l/m 3,2 km/h (1 Bft) W 270 11,7 C 18,7 C
02.07.2012 08:06 18,8 C 63 % 1022,6 hPa 0,0 l/m 1,8 km/h (1 Bft) W 270 11,6 C 18,8 C
02.07.2012 08:11 18,9 C 63 % 1022,5 hPa 0,0 l/m 2,5 km/h (1 Bft) S 180 11,7 C 18,9 C
02.07.2012 08:16 19,1 C 62 % 1022,6 hPa 0,0 l/m 2,9 km/h (1 Bft) NW 315 11,6 C 19,1 C
02.07.2012 08:21 19,1 C 61 % 1022,7 hPa 0,0 l/m 4,3 km/h (1 Bft) W 270 11,4 C 19,1 C
02.07.2012 08:26 19,2 C 61 % 1022,6 hPa 0,0 l/m 4,7 km/h (1 Bft) SW 225 11,5 C 19,2 C
02.07.2012 08:31 19,3 C 60 % 1022,7 hPa 0,0 l/m 0,0 km/h (0 Bft) W 270 11,3 C 19,3 C
02.07.2012 08:36 19,4 C 59 % 1022,7 hPa 0,0 l/m 3,6 km/h (1 Bft) W-SW 247 11,2 C 19,4 C
02.07.2012 08:41 19,5 C 59 % 1022,8 hPa 0,0 l/m 4,0 km/h (1 Bft) W-SW 247 11,3 C 19,5 C
02.07.2012 08:46 19,5 C 58 % 1022,9 hPa 0,0 l/m 2,9 km/h (1 Bft) NO 45 11,0 C 19,5 C
02.07.2012 08:51 19,3 C 58 % 1023,1 hPa 0,0 l/m 0,0 km/h (0 Bft) NW 315 10,8 C 19,3 C
02.07.2012 08:56 19,2 C 58 % 1023,1 hPa 0,0 l/m 3,2 km/h (1 Bft) N-NW 337 10,7 C 19,2 C
02.07.2012 09:01 19,1 C 58 % 1023,0 hPa 0,0 l/m 2,9 km/h (1 Bft) W-NW 292 10,6 C 19,1 C
02.07.2012 09:06 19,1 C 57 % 1023,1 hPa 0,0 l/m 2,2 km/h (1 Bft) O 90 10,4 C 19,1 C
02.07.2012 09:11 19,1 C 57 % 1023,0 hPa 0,0 l/m 2,5 km/h (1 Bft) SO 135 10,4 C 19,1 C
02.07.2012 09:16 19,2 C 57 % 1022,9 hPa 0,0 l/m 0,0 km/h (0 Bft) O-NO 67 10,5 C 19,2 C
02.07.2012 09:21 19,3 C 57 % 1022,8 hPa 0,0 l/m 0,0 km/h (0 Bft) W-NW 292 10,6 C 19,3 C
02.07.2012 09:26 19,3 C 55 % 1023,1 hPa 0,0 l/m 4,3 km/h (1 Bft) NO 45 10,0 C 19,3 C
02.07.2012 09:31 19,1 C 56 % 1023,3 hPa 0,0 l/m 0,0 km/h (0 Bft) NO 45 10,1 C 19,1 C
02.07.2012 09:36 19,2 C 56 % 1023,1 hPa 0,0 l/m 0,0 km/h (0 Bft) W-SW 247 10,2 C 19,2 C
02.07.2012 09:41 19,4 C 56 % 1023,1 hPa 0,0 l/m 4,0 km/h (1 Bft) S 180 10,4 C 19,4 C
02.07.2012 09:46 19,6 C 56 % 1023,0 hPa 0,0 l/m 1,8 km/h (1 Bft) S-SO 157 10,6 C 19,6 C
02.07.2012 09:51 19,9 C 55 % 1022,9 hPa 0,0 l/m 0,0 km/h (0 Bft) N-NW 337 10,6 C 19,9 C
02.07.2012 09:56 20,3 C 55 % 1022,9 hPa 0,0 l/m 4,7 km/h (1 Bft) S-SW 202 11,0 C 20,3 C
02.07.2012 10:01 20,3 C 54 % 1022,9 hPa 0,0 l/m 5,4 km/h (1 Bft) SW 225 10,7 C 20,3 C
02.07.2012 10:06 20,3 C 54 % 1022,9 hPa 0,0 l/m 4,0 km/h (1 Bft) S-SW 202 10,7 C 20,3 C
02.07.2012 10:11 20,2 C 54 % 1023,0 hPa 0,0 l/m 6,8 km/h (2 Bft) S-SW 202 10,6 C 20,2 C
02.07.2012 10:16 20,3 C 54 % 1023,0 hPa 0,0 l/m 0,0 km/h (0 Bft) O-NO 67 10,7 C 20,3 C
02.07.2012 10:21 20,4 C 54 % 1023,2 hPa 0,0 l/m 3,2 km/h (1 Bft) S-SO 157 10,8 C 20,4 C
02.07.2012 10:26 20,5 C 53 % 1023,1 hPa 0,0 l/m 4,0 km/h (1 Bft) S-SO 157 10,6 C 20,5 C
02.07.2012 10:31 20,6 C 53 % 1023,0 hPa 0,0 l/m 1,1 km/h (1 Bft) W-SW 247 10,7 C 20,6 C
02.07.2012 10:36 20,7 C 53 % 1023,1 hPa 0,0 l/m 4,7 km/h (1 Bft) W-SW 247 10,8 C 20,7 C
02.07.2012 10:41 20,8 C 52 % 1023,2 hPa 0,0 l/m 0,0 km/h (0 Bft) N-NW 337 10,6 C 20,8 C
02.07.2012 10:46 20,6 C 53 % 1023,0 hPa 0,0 l/m 0,0 km/h (0 Bft) W 270 10,7 C 20,6 C
02.07.2012 10:51 20,6 C 52 % 1023,0 hPa 0,0 l/m 2,9 km/h (1 Bft) SW 225 10,4 C 20,6 C
02.07.2012 10:56 20,6 C 53 % 1023,0 hPa 0,0 l/m 4,3 km/h (1 Bft) W-SW 247 10,7 C 20,6 C
02.07.2012 11:01 20,6 C 52 % 1022,9 hPa 0,0 l/m 2,9 km/h (1 Bft) W-NW 292 10,4 C 20,6 C
02.07.2012 11:06 20,6 C 51 % 1023,1 hPa 0,0 l/m 1,8 km/h (1 Bft) N 360 10,1 C 20,6 C
02.07.2012 11:11 20,3 C 51 % 1023,3 hPa 0,0 l/m 0,0 km/h (0 Bft) NO 45 9,8 C 20,3 C
02.07.2012 11:16 20,3 C 52 % 1023,3 hPa 0,0 l/m 1,4 km/h (1 Bft) S-SW 202 10,1 C 20,3 C
02.07.2012 11:21 20,4 C 52 % 1023,3 hPa 0,0 l/m 3,2 km/h (1 Bft) SW 225 10,2 C 20,4 C
02.07.2012 11:26 20,5 C 52 % 1023,1 hPa 0,0 l/m 1,8 km/h (1 Bft) S 180 10,3 C 20,5 C
02.07.2012 11:31 20,6 C 51 % 1022,9 hPa 0,0 l/m 0,0 km/h (0 Bft) W 270 10,1 C 20,6 C
02.07.2012 11:36 20,7 C 51 % 1022,8 hPa 0,0 l/m 0,0 km/h (0 Bft) W-NW 292 10,2 C 20,7 C
02.07.2012 11:41 20,8 C 52 % 1022,7 hPa 0,0 l/m 5,0 km/h (1 Bft) SW 225 10,6 C 20,8 C
02.07.2012 11:46 20,9 C 52 % 1022,8 hPa 0,0 l/m 4,0 km/h (1 Bft) W-SW 247 10,7 C 20,9 C
02.07.2012 11:51 20,8 C 52 % 1022,7 hPa 0,0 l/m 4,3 km/h (1 Bft) S-SW 202 10,6 C 20,8 C
02.07.2012 11:56 20,8 C 51 % 1022,6 hPa 0,0 l/m 4,7 km/h (1 Bft) S-SO 157 10,3 C 20,8 C
02.07.2012 12:01 20,8 C 51 % 1022,7 hPa 0,0 l/m 2,2 km/h (1 Bft) S 180 10,3 C 20,8 C
02.07.2012 12:06 20,8 C 50 % 1022,6 hPa 0,0 l/m 3,6 km/h (1 Bft) SO 135 10,0 C 20,8 C
02.07.2012 12:11 20,8 C 50 % 1022,6 hPa 0,0 l/m 5,0 km/h (1 Bft) S-SW 202 10,0 C 20,8 C
02.07.2012 12:16 20,9 C 50 % 1022,7 hPa 0,0 l/m 0,0 km/h (0 Bft) W 270 10,1 C 20,9 C
02.07.2012 12:21 20,8 C 49 % 1022,5 hPa 0,0 l/m 3,6 km/h (1 Bft) SW 225 9,7 C 20,8 C
02.07.2012 12:26 21,0 C 50 % 1022,4 hPa 0,0 l/m 3,6 km/h (1 Bft) S-SW 202 10,2 C 21,0 C
02.07.2012 12:31 21,2 C 49 % 1022,4 hPa 0,0 l/m 5,0 km/h (1 Bft) S-SW 202 10,1 C 21,2 C
02.07.2012 12:36 21,3 C 49 % 1022,5 hPa 0,0 l/m 2,2 km/h (1 Bft) W 270 10,1 C 21,3 C
02.07.2012 12:41 21,4 C 49 % 1022,5 hPa 0,0 l/m 5,4 km/h (1 Bft) W 270 10,2 C 21,4 C
02.07.2012 12:46 21,6 C 48 % 1022,4 hPa 0,0 l/m 2,5 km/h (1 Bft) N-NO 22 10,1 C 21,6 C
02.07.2012 12:51 21,4 C 47 % 1022,3 hPa 0,0 l/m 2,2 km/h (1 Bft) O-NO 67 9,6 C 21,4 C
02.07.2012 12:56 21,4 C 48 % 1022,2 hPa 0,0 l/m 4,0 km/h (1 Bft) W-NW 292 9,9 C 21,4 C
02.07.2012 13:01 21,5 C 49 % 1022,2 hPa 0,0 l/m 7,2 km/h (2 Bft) W-SW 247 10,3 C 21,5 C
02.07.2012 13:06 21,6 C 48 % 1022,3 hPa 0,0 l/m 5,0 km/h (1 Bft) W-NW 292 10,1 C 21,6 C
02.07.2012 13:11 21,7 C 49 % 1022,2 hPa 0,0 l/m 1,4 km/h (1 Bft) W-NW 292 10,5 C 21,7 C
02.07.2012 13:16 21,8 C 49 % 1022,1 hPa 0,0 l/m 0,0 km/h (0 Bft) SW 225 10,6 C 21,8 C
02.07.2012 13:21 21,9 C 48 % 1022,2 hPa 0,0 l/m 2,2 km/h (1 Bft) W-NW 292 10,4 C 21,9 C
02.07.2012 13:26 21,9 C 48 % 1022,1 hPa 0,0 l/m 0,0 km/h (0 Bft) W 270 10,4 C 21,9 C
02.07.2012 13:31 22,1 C 49 % 1022,1 hPa 0,0 l/m 2,9 km/h (1 Bft) N 360 10,9 C 22,1 C
02.07.2012 13:36 22,2 C 48 % 1022,2 hPa 0,0 l/m 1,4 km/h (1 Bft) W-NW 292 10,7 C 22,2 C
02.07.2012 13:41 22,3 C 49 % 1022,3 hPa 0,0 l/m 0,0 km/h (0 Bft) O-SO 112 11,1 C 22,3 C
02.07.2012 13:46 22,6 C 49 % 1022,3 hPa 0,0 l/m 5,4 km/h (1 Bft) S-SW 202 11,3 C 22,6 C
02.07.2012 13:51 22,8 C 49 % 1022,3 hPa 0,0 l/m 7,6 km/h (2 Bft) SW 225 11,5 C 22,8 C
02.07.2012 13:56 22,7 C 48 % 1022,2 hPa 0,0 l/m 5,0 km/h (1 Bft) W 270 11,1 C 22,7 C
02.07.2012 14:01 22,7 C 49 % 1022,2 hPa 0,0 l/m 6,8 km/h (2 Bft) S-SW 202 11,4 C 22,7 C
02.07.2012 14:06 22,7 C 48 % 1022,3 hPa 0,0 l/m 4,0 km/h (1 Bft) N-NW 337 11,1 C 22,7 C
02.07.2012 14:11 22,6 C 48 % 1022,2 hPa 0,0 l/m 5,4 km/h (1 Bft) W 270 11,0 C 22,6 C
02.07.2012 14:16 22,5 C 48 % 1022,1 hPa 0,0 l/m 0,0 km/h (0 Bft) W-SW 247 10,9 C 22,5 C
02.07.2012 14:21 22,4 C 48 % 1022,0 hPa 0,0 l/m 4,7 km/h (1 Bft) S-SO 157 10,8 C 22,4 C
02.07.2012 14:26 22,2 C 48 % 1022,1 hPa 0,0 l/m 2,2 km/h (1 Bft) S-SW 202 10,7 C 22,2 C
02.07.2012 14:31 22,2 C 48 % 1022,1 hPa 0,0 l/m 3,2 km/h (1 Bft) W 270 10,7 C 22,2 C
02.07.2012 14:36 22,2 C 49 % 1021,9 hPa 0,0 l/m 4,0 km/h (1 Bft) SW 225 11,0 C 22,2 C
02.07.2012 14:41 22,1 C 48 % 1022,0 hPa 0,0 l/m 3,6 km/h (1 Bft) W-SW 247 10,6 C 22,1 C
02.07.2012 14:46 22,0 C 48 % 1021,8 hPa 0,0 l/m 5,0 km/h (1 Bft) SW 225 10,5 C 22,0 C
02.07.2012 14:51 21,9 C 48 % 1021,9 hPa 0,0 l/m 3,6 km/h (1 Bft) W-SW 247 10,4 C 21,9 C
02.07.2012 14:56 21,8 C 49 % 1021,9 hPa 0,0 l/m 5,0 km/h (1 Bft) W-SW 247 10,6 C 21,8 C
02.07.2012 15:01 21,6 C 51 % 1021,9 hPa 0,0 l/m 0,0 km/h (0 Bft) W 270 11,0 C 21,6 C
02.07.2012 15:06 21,4 C 51 % 1021,9 hPa 0,0 l/m 2,2 km/h (1 Bft) W 270 10,8 C 21,4 C
02.07.2012 15:11 21,3 C 52 % 1021,8 hPa 0,0 l/m 4,7 km/h (1 Bft) W 270 11,0 C 21,3 C
02.07.2012 15:16 21,2 C 52 % 1021,7 hPa 0,0 l/m 5,0 km/h (1 Bft) W-NW 292 10,9 C 21,2 C
02.07.2012 15:21 21,1 C 52 % 1021,8 hPa 0,0 l/m 3,6 km/h (1 Bft) W 270 10,9 C 21,1 C
02.07.2012 15:26 21,1 C 51 % 1021,6 hPa 0,0 l/m 3,6 km/h (1 Bft) W-NW 292 10,6 C 21,1 C
02.07.2012 15:31 21,2 C 52 % 1021,6 hPa 0,0 l/m 6,1 km/h (2 Bft) W-SW 247 10,9 C 21,2 C
02.07.2012 15:36 21,3 C 51 % 1021,7 hPa 0,0 l/m 4,7 km/h (1 Bft) NW 315 10,7 C 21,3 C
02.07.2012 15:41 21,3 C 51 % 1021,7 hPa 0,0 l/m 4,0 km/h (1 Bft) SW 225 10,7 C 21,3 C
02.07.2012 15:46 21,2 C 52 % 1021,8 hPa 0,0 l/m 2,2 km/h (1 Bft) W 270 10,9 C 21,2 C
02.07.2012 15:51 21,2 C 52 % 1021,9 hPa 0,0 l/m 1,8 km/h (1 Bft) NW 315 10,9 C 21,2 C
02.07.2012 15:56 21,2 C 52 % 1021,9 hPa 0,0 l/m 3,2 km/h (1 Bft) W-NW 292 10,9 C 21,2 C
02.07.2012 16:01 21,1 C 52 % 1021,8 hPa 0,0 l/m 2,9 km/h (1 Bft) W-NW 292 10,9 C 21,1 C
02.07.2012 16:06 21,0 C 53 % 1022,0 hPa 0,0 l/m 1,8 km/h (1 Bft) W-NW 292 11,0 C 21,0 C
02.07.2012 16:11 20,9 C 53 % 1021,9 hPa 0,0 l/m 3,2 km/h (1 Bft) W 270 11,0 C 20,9 C
02.07.2012 16:16 20,6 C 54 % 1021,7 hPa 0,0 l/m 1,8 km/h (1 Bft) W-NW 292 11,0 C 20,6 C
02.07.2012 16:21 20,5 C 55 % 1021,8 hPa 0,0 l/m 0,0 km/h (0 Bft) NW 315 11,1 C 20,5 C
02.07.2012 16:26 20,4 C 55 % 1021,8 hPa 0,0 l/m 1,1 km/h (1 Bft) NW 315 11,1 C 20,4 C
02.07.2012 16:31 20,3 C 56 % 1021,6 hPa 0,0 l/m 0,0 km/h (0 Bft) NW 315 11,2 C 20,3 C
02.07.2012 16:36 20,1 C 57 % 1021,6 hPa 0,0 l/m 0,0 km/h (0 Bft) N-NW 337 11,3 C 20,1 C
02.07.2012 16:41 19,9 C 58 % 1021,6 hPa 0,0 l/m 0,0 km/h (0 Bft) N-NO 22 11,4 C 19,9 C
02.07.2012 16:46 19,8 C 60 % 1021,9 hPa 0,0 l/m 0,0 km/h (0 Bft) N 360 11,8 C 19,8 C
02.07.2012 16:51 19,7 C 60 % 1021,9 hPa 0,5 l/m 0,0 km/h (0 Bft) NW 315 11,7 C 19,7 C
02.07.2012 16:56 19,6 C 60 % 1022,1 hPa 0,0 l/m 0,0 km/h (0 Bft) W 270 11,6 C 19,6 C
02.07.2012 17:01 19,6 C 62 % 1022,1 hPa 0,0 l/m 0,0 km/h (0 Bft) W-NW 292 12,1 C 19,6 C
02.07.2012 17:06 19,4 C 63 % 1021,8 hPa 0,5 l/m 1,4 km/h (1 Bft) N-NW 337 12,2 C 19,4 C
02.07.2012 17:11 19,0 C 66 % 1021,5 hPa 0,0 l/m 1,8 km/h (1 Bft) NO 45 12,5 C 19,0 C
02.07.2012 17:16 18,6 C 67 % 1021,4 hPa 0,5 l/m 1,8 km/h (1 Bft) O-NO 67 12,3 C 18,6 C
02.07.2012 17:21 18,4 C 67 % 1021,4 hPa 0,0 l/m 0,0 km/h (0 Bft) O-NO 67 12,2 C 18,4 C
02.07.2012 17:26 18,2 C 68 % 1021,8 hPa 0,5 l/m 0,0 km/h (0 Bft) NO 45 12,2 C 18,2 C
02.07.2012 17:31 18,2 C 70 % 1021,6 hPa 0,0 l/m 1,1 km/h (1 Bft) NW 315 12,6 C 18,2 C
02.07.2012 17:36 18,1 C 71 % 1021,4 hPa 0,0 l/m 0,0 km/h (0 Bft) N-NO 22 12,8 C 18,1 C
02.07.2012 17:41 18,1 C 71 % 1021,4 hPa 0,0 l/m 2,5 km/h (1 Bft) NO 45 12,8 C 18,1 C
02.07.2012 17:46 17,9 C 70 % 1021,2 hPa 0,0 l/m 2,2 km/h (1 Bft) N-NO 22 12,3 C 17,9 C
02.07.2012 17:51 17,8 C 71 % 1021,5 hPa 0,0 l/m 2,2 km/h (1 Bft) O 90 12,5 C 17,8 C
02.07.2012 17:56 17,8 C 72 % 1021,5 hPa 0,0 l/m 4,3 km/h (1 Bft) O-NO 67 12,7 C 17,8 C
02.07.2012 18:01 17,8 C 72 % 1021,4 hPa 0,0 l/m 3,6 km/h (1 Bft) O 90 12,7 C 17,8 C
02.07.2012 18:06 17,8 C 73 % 1021,4 hPa 0,0 l/m 0,0 km/h (0 Bft) O 90 12,9 C 17,8 C
02.07.2012 18:11 17,9 C 71 % 1021,4 hPa 0,0 l/m 1,4 km/h (1 Bft) O-NO 67 12,6 C 17,9 C
02.07.2012 18:16 17,9 C 71 % 1021,5 hPa 0,0 l/m 3,2 km/h (1 Bft) O 90 12,6 C 17,9 C
02.07.2012 18:21 17,9 C 71 % 1021,5 hPa 0,0 l/m 0,0 km/h (0 Bft) O-SO 112 12,6 C 17,9 C
02.07.2012 18:26 17,8 C 72 % 1021,2 hPa 0,0 l/m 0,0 km/h (0 Bft) O-NO 67 12,7 C 17,8 C
02.07.2012 18:31 17,7 C 73 % 1021,2 hPa 0,0 l/m 4,0 km/h (1 Bft) O 90 12,8 C 17,7 C
02.07.2012 18:36 17,6 C 73 % 1021,3 hPa 0,0 l/m 1,4 km/h (1 Bft) O-SO 112 12,7 C 17,6 C
02.07.2012 18:41 17,6 C 74 % 1021,4 hPa 0,0 l/m 1,1 km/h (1 Bft) SO 135 12,9 C 17,6 C
02.07.2012 18:46 17,5 C 75 % 1021,2 hPa 0,0 l/m 3,6 km/h (1 Bft) O-SO 112 13,0 C 17,5 C
02.07.2012 18:51 17,4 C 75 % 1021,2 hPa 0,0 l/m 0,0 km/h (0 Bft) O-SO 112 12,9 C 17,4 C
02.07.2012 18:56 17,4 C 75 % 1021,2 hPa 0,0 l/m 3,2 km/h (1 Bft) O-NO 67 12,9 C 17,4 C
02.07.2012 19:01 17,5 C 75 % 1021,3 hPa 0,0 l/m 1,1 km/h (1 Bft) O 90 13,0 C 17,5 C
02.07.2012 19:06 17,4 C 76 % 1021,1 hPa 0,0 l/m 1,1 km/h (1 Bft) NO 45 13,1 C 17,4 C
02.07.2012 19:11 17,4 C 77 % 1021,1 hPa 0,0 l/m 0,0 km/h (0 Bft) W-SW 247 13,3 C 17,4 C
02.07.2012 19:16 17,3 C 77 % 1021,2 hPa 0,0 l/m 0,0 km/h (0 Bft) W-SW 247 13,2 C 17,3 C
02.07.2012 19:21 17,3 C 78 % 1021,3 hPa 0,0 l/m 2,9 km/h (1 Bft) W-SW 247 13,4 C 17,3 C
02.07.2012 19:26 17,3 C 77 % 1021,4 hPa 0,0 l/m 0,0 km/h (0 Bft) O 90 13,2 C 17,3 C
02.07.2012 19:31 17,1 C 77 % 1021,1 hPa 0,0 l/m 0,0 km/h (0 Bft) O 90 13,0 C 17,1 C
02.07.2012 19:36 17,1 C 78 % 1021,3 hPa 0,0 l/m 0,0 km/h (0 Bft) O-SO 112 13,2 C 17,1 C
02.07.2012 19:41 17,1 C 78 % 1021,3 hPa 0,0 l/m 5,8 km/h (2 Bft) W 270 13,2 C 17,1 C
02.07.2012 19:46 17,8 C 78 % 1021,3 hPa 0,0 l/m 0,0 km/h (0 Bft) O-SO 112 13,9 C 17,8 C
02.07.2012 19:51 17,6 C 76 % 1021,3 hPa 0,0 l/m 0,0 km/h (0 Bft) O-SO 112 13,3 C 17,6 C
02.07.2012 19:56 17,3 C 78 % 1021,4 hPa 0,0 l/m 0,0 km/h (0 Bft) O-SO 112 13,4 C 17,3 C
02.07.2012 20:01 17,1 C 79 % 1021,4 hPa 0,0 l/m 0,0 km/h (0 Bft) O-SO 112 13,4 C 17,1 C
02.07.2012 20:06 16,9 C 81 % 1021,3 hPa 0,0 l/m 0,0 km/h (0 Bft) O-SO 112 13,6 C 16,9 C
02.07.2012 20:11 16,8 C 81 % 1021,2 hPa 0,0 l/m 0,0 km/h (0 Bft) O-SO 112 13,5 C 16,8 C
02.07.2012 20:16 16,8 C 82 % 1021,2 hPa 0,0 l/m 0,0 km/h (0 Bft) O-SO 112 13,7 C 16,8 C
02.07.2012 20:21 16,9 C 82 % 1021,2 hPa 0,0 l/m 0,0 km/h (0 Bft) O-SO 112 13,8 C 16,9 C
02.07.2012 20:26 16,8 C 82 % 1021,1 hPa 0,0 l/m 0,0 km/h (0 Bft) O-SO 112 13,7 C 16,8 C
02.07.2012 20:31 16,8 C 82 % 1021,1 hPa 0,0 l/m 0,0 km/h (0 Bft) O-SO 112 13,7 C 16,8 C
02.07.2012 20:36 16,9 C 82 % 1021,0 hPa 0,0 l/m 0,0 km/h (0 Bft) O-SO 112 13,8 C 16,9 C
02.07.2012 20:41 17,1 C 81 % 1020,8 hPa 0,0 l/m 20,5 km/h (4 Bft) W-SW 247 13,8 C 17,1 C
02.07.2012 20:46 17,3 C 79 % 1020,7 hPa 0,0 l/m 20,5 km/h (4 Bft) SO 135 13,6 C 17,3 C
02.07.2012 20:51 17,0 C 80 % 1020,8 hPa 0,0 l/m 20,5 km/h (4 Bft) SO 135 13,5 C 17,0 C
02.07.2012 20:56 16,9 C 80 % 1020,9 hPa 0,0 l/m 20,5 km/h (4 Bft) SO 135 13,4 C 16,9 C
02.07.2012 21:01 16,9 C 79 % 1021,0 hPa 0,0 l/m 20,5 km/h (4 Bft) SO 135 13,2 C 16,9 C
02.07.2012 21:06 16,9 C 79 % 1020,9 hPa 0,0 l/m 20,5 km/h (4 Bft) SO 135 13,2 C 16,9 C
02.07.2012 21:11 16,9 C 80 % 1020,9 hPa 0,0 l/m 20,5 km/h (4 Bft) SO 135 13,4 C 16,9 C
02.07.2012 21:16 16,9 C 80 % 1020,7 hPa 0,0 l/m 20,5 km/h (4 Bft) SO 135 13,4 C 16,9 C
02.07.2012 21:21 16,5 C 81 % 1020,7 hPa 0,0 l/m 20,5 km/h (4 Bft) SO 135 13,2 C 16,5 C
02.07.2012 21:26 16,4 C 82 % 1020,6 hPa 0,0 l/m 20,5 km/h (4 Bft) SO 135 13,3 C 16,4 C
02.07.2012 21:31 16,4 C 82 % 1020,4 hPa 0,5 l/m 20,5 km/h (4 Bft) SO 135 13,3 C 16,4 C
02.07.2012 21:36 16,4 C 82 % 1020,3 hPa 0,0 l/m 20,5 km/h (4 Bft) SO 135 13,3 C 16,4 C
02.07.2012 21:41 16,3 C 82 % 1020,2 hPa 0,0 l/m 20,5 km/h (4 Bft) NW 315 13,2 C 16,3 C
02.07.2012 21:46 16,4 C 83 % 1020,3 hPa 0,0 l/m 20,5 km/h (4 Bft) NW 315 13,5 C 16,4 C
02.07.2012 21:51 16,4 C 82 % 1020,2 hPa 0,0 l/m 20,5 km/h (4 Bft) NW 315 13,3 C 16,4 C
02.07.2012 21:56 16,4 C 82 % 1020,1 hPa 0,0 l/m 0,0 km/h (0 Bft) N-NO 22 13,3 C 16,4 C
02.07.2012 22:01 16,4 C 82 % 1020,0 hPa 0,0 l/m 0,0 km/h (0 Bft) NO 45 13,3 C 16,4 C
02.07.2012 22:06 16,4 C 82 % 1019,7 hPa 0,0 l/m 1,8 km/h (1 Bft) N 360 13,3 C 16,4 C
02.07.2012 22:11 16,4 C 82 % 1019,7 hPa 0,0 l/m 3,2 km/h (1 Bft) NO 45 13,3 C 16,4 C
02.07.2012 22:16 16,4 C 82 % 1019,7 hPa 0,0 l/m 1,1 km/h (1 Bft) NO 45 13,3 C 16,4 C
02.07.2012 22:21 16,4 C 82 % 1019,8 hPa 0,0 l/m 3,2 km/h (1 Bft) O-NO 67 13,3 C 16,4 C
02.07.2012 22:26 16,4 C 81 % 1020,1 hPa 0,0 l/m 4,7 km/h (1 Bft) O-NO 67 13,1 C 16,4 C
02.07.2012 22:31 16,4 C 81 % 1020,3 hPa 0,0 l/m 4,0 km/h (1 Bft) O-SO 112 13,1 C 16,4 C
02.07.2012 22:36 16,4 C 81 % 1020,2 hPa 0,0 l/m 1,4 km/h (1 Bft) O-NO 67 13,1 C 16,4 C
02.07.2012 22:41 16,4 C 81 % 1020,1 hPa 0,0 l/m 0,0 km/h (0 Bft) O-NO 67 13,1 C 16,4 C
02.07.2012 22:46 16,5 C 81 % 1020,1 hPa 0,0 l/m 0,0 km/h (0 Bft) O-NO 67 13,2 C 16,5 C
02.07.2012 22:51 16,4 C 81 % 1020,1 hPa 0,0 l/m 0,0 km/h (0 Bft) O-NO 67 13,1 C 16,4 C
02.07.2012 22:56 16,4 C 81 % 1020,2 hPa 0,0 l/m 0,0 km/h (0 Bft) NO 45 13,1 C 16,4 C
02.07.2012 23:01 16,4 C 81 % 1020,3 hPa 0,0 l/m 2,5 km/h (1 Bft) N-NO 22 13,1 C 16,4 C
02.07.2012 23:06 16,3 C 81 % 1020,2 hPa 0,0 l/m 0,0 km/h (0 Bft) N 360 13,0 C 16,3 C
02.07.2012 23:11 16,2 C 81 % 1020,2 hPa 0,0 l/m 0,0 km/h (0 Bft) N-NW 337 12,9 C 16,2 C
02.07.2012 23:16 16,1 C 81 % 1020,1 hPa 0,0 l/m 3,6 km/h (1 Bft) N 360 12,8 C 16,1 C
02.07.2012 23:21 16,1 C 81 % 1020,1 hPa 0,0 l/m 0,0 km/h (0 Bft) NO 45 12,8 C 16,1 C
02.07.2012 23:26 15,9 C 82 % 1020,3 hPa 0,0 l/m 0,0 km/h (0 Bft) N-NO 22 12,8 C 15,9 C
02.07.2012 23:31 15,9 C 82 % 1020,4 hPa 0,0 l/m 0,0 km/h (0 Bft) N-NO 22 12,8 C 15,9 C
02.07.2012 23:36 15,9 C 82 % 1020,4 hPa 0,0 l/m 0,0 km/h (0 Bft) N-NO 22 12,8 C 15,9 C
02.07.2012 23:41 15,9 C 82 % 1020,5 hPa 0,0 l/m 0,0 km/h (0 Bft) NO 45 12,8 C 15,9 C
02.07.2012 23:46 15,9 C 82 % 1020,7 hPa 0,0 l/m 0,0 km/h (0 Bft) NO 45 12,8 C 15,9 C
02.07.2012 23:51 15,9 C 82 % 1020,6 hPa 0,0 l/m 0,0 km/h (0 Bft) NO 45 12,8 C 15,9 C
02.07.2012 23:56 16,1 C 82 % 1020,5 hPa 0,0 l/m 0,0 km/h (0 Bft) NO 45 13,0 C 16,1 C
_ Min-Zeit 05:31 12:51 22:06 - 02:46 - - 12:51 05:31
Minimum _ 13,5 C 47 % 1019,7 hPa - 0,0 km/h (0 Bft) - - 9,6 C 13,5 C
_ Max-Zeit 13:51 21:46 09:31 16:51 20:41 - - 19:46 13:51
Maximum _ 22,8 C 83 % 1023,3 hPa 0,5 l/m 20,5 km/h
W-SW (4 Bft)
- - 13,9 C 22,8 C
Durchschnitt _ 18,0 C 67 % 1021,7 hPa #2,6 l/m 3,1 km/h (1 Bft) W - 11,6 C 18,0 C
(c) by David Heller